sensor_id;sensor_type;location;lat;lon;timestamp;P1;durP1;ratioP1;P2;durP2;ratioP2
8413;SDS011;4244;48.684;9.028;2023-03-02T00:00:35;28.70;;;22.40;;
8413;SDS011;4244;48.684;9.028;2023-03-02T00:03:01;27.83;;;23.37;;
8413;SDS011;4244;48.684;9.028;2023-03-02T00:05:29;27.63;;;21.57;;
8413;SDS011;4244;48.684;9.028;2023-03-02T00:07:55;29.40;;;22.33;;
8413;SDS011;4244;48.684;9.028;2023-03-02T00:10:22;28.90;;;22.87;;
8413;SDS011;4244;48.684;9.028;2023-03-02T00:12:48;31.57;;;23.20;;
8413;SDS011;4244;48.684;9.028;2023-03-02T00:15:14;29.87;;;24.30;;
8413;SDS011;4244;48.684;9.028;2023-03-02T00:17:39;26.50;;;21.83;;
8413;SDS011;4244;48.684;9.028;2023-03-02T00:20:05;29.20;;;23.83;;
8413;SDS011;4244;48.684;9.028;2023-03-02T00:22:34;26.10;;;22.20;;
8413;SDS011;4244;48.684;9.028;2023-03-02T00:25:04;29.63;;;22.80;;
8413;SDS011;4244;48.684;9.028;2023-03-02T00:27:30;30.67;;;22.57;;
8413;SDS011;4244;48.684;9.028;2023-03-02T00:29:56;28.40;;;22.07;;
8413;SDS011;4244;48.684;9.028;2023-03-02T00:32:22;29.37;;;23.57;;
8413;SDS011;4244;48.684;9.028;2023-03-02T00:34:48;28.57;;;21.67;;
8413;SDS011;4244;48.684;9.028;2023-03-02T00:37:14;26.17;;;22.00;;
8413;SDS011;4244;48.684;9.028;2023-03-02T00:39:39;31.30;;;23.10;;
8413;SDS011;4244;48.684;9.028;2023-03-02T00:42:05;26.50;;;21.60;;
8413;SDS011;4244;48.684;9.028;2023-03-02T00:44:30;29.33;;;23.33;;
8413;SDS011;4244;48.684;9.028;2023-03-02T00:46:56;30.70;;;22.70;;
8413;SDS011;4244;48.684;9.028;2023-03-02T00:49:22;28.13;;;21.97;;
8413;SDS011;4244;48.684;9.028;2023-03-02T00:51:47;26.40;;;22.30;;
8413;SDS011;4244;48.684;9.028;2023-03-02T00:54:13;27.10;;;21.90;;
8413;SDS011;4244;48.684;9.028;2023-03-02T00:56:39;26.43;;;21.60;;
8413;SDS011;4244;48.684;9.028;2023-03-02T00:59:05;27.90;;;23.37;;
8413;SDS011;4244;48.684;9.028;2023-03-02T01:01:35;28.30;;;22.00;;
8413;SDS011;4244;48.684;9.028;2023-03-02T01:04:02;24.33;;;21.20;;
8413;SDS011;4244;48.684;9.028;2023-03-02T01:06:27;26.37;;;21.63;;
8413;SDS011;4244;48.684;9.028;2023-03-02T01:08:53;31.40;;;22.67;;
8413;SDS011;4244;48.684;9.028;2023-03-02T01:11:20;28.47;;;22.90;;
8413;SDS011;4244;48.684;9.028;2023-03-02T01:13:46;29.50;;;22.93;;
8413;SDS011;4244;48.684;9.028;2023-03-02T01:16:13;29.00;;;21.90;;
8413;SDS011;4244;48.684;9.028;2023-03-02T01:18:39;29.33;;;22.37;;
8413;SDS011;4244;48.684;9.028;2023-03-02T01:21:05;28.70;;;23.23;;
8413;SDS011;4244;48.684;9.028;2023-03-02T01:23:33;28.53;;;23.53;;
8413;SDS011;4244;48.684;9.028;2023-03-02T01:25:59;27.87;;;22.23;;
8413;SDS011;4244;48.684;9.028;2023-03-02T01:28:25;29.57;;;22.80;;
8413;SDS011;4244;48.684;9.028;2023-03-02T01:30:50;29.07;;;22.47;;
8413;SDS011;4244;48.684;9.028;2023-03-02T01:33:16;28.90;;;23.00;;
8413;SDS011;4244;48.684;9.028;2023-03-02T01:35:45;28.07;;;21.47;;
8413;SDS011;4244;48.684;9.028;2023-03-02T01:38:11;30.20;;;24.40;;
8413;SDS011;4244;48.684;9.028;2023-03-02T01:40:37;27.10;;;21.40;;
8413;SDS011;4244;48.684;9.028;2023-03-02T01:43:05;29.27;;;22.93;;
8413;SDS011;4244;48.684;9.028;2023-03-02T01:48:13;26.50;;;22.03;;
8413;SDS011;4244;48.684;9.028;2023-03-02T01:50:40;27.97;;;22.47;;
8413;SDS011;4244;48.684;9.028;2023-03-02T01:53:06;29.83;;;23.30;;
8413;SDS011;4244;48.684;9.028;2023-03-02T01:55:32;25.60;;;21.30;;
8413;SDS011;4244;48.684;9.028;2023-03-02T01:57:58;28.07;;;22.47;;
8413;SDS011;4244;48.684;9.028;2023-03-02T02:00:33;28.47;;;21.73;;
8413;SDS011;4244;48.684;9.028;2023-03-02T02:03:04;29.77;;;24.03;;
8413;SDS011;4244;48.684;9.028;2023-03-02T02:05:35;33.07;;;23.23;;
8413;SDS011;4244;48.684;9.028;2023-03-02T02:08:03;27.87;;;23.00;;
8413;SDS011;4244;48.684;9.028;2023-03-02T02:10:30;28.57;;;22.60;;
8413;SDS011;4244;48.684;9.028;2023-03-02T02:12:56;29.70;;;22.87;;
8413;SDS011;4244;48.684;9.028;2023-03-02T02:15:22;26.77;;;22.40;;
8413;SDS011;4244;48.684;9.028;2023-03-02T02:17:47;28.03;;;22.53;;
8413;SDS011;4244;48.684;9.028;2023-03-02T02:22:58;29.23;;;22.70;;
8413;SDS011;4244;48.684;9.028;2023-03-02T02:28:17;30.60;;;23.10;;
8413;SDS011;4244;48.684;9.028;2023-03-02T02:30:46;28.90;;;23.10;;
8413;SDS011;4244;48.684;9.028;2023-03-02T02:33:15;30.37;;;23.30;;
8413;SDS011;4244;48.684;9.028;2023-03-02T02:35:44;30.20;;;24.17;;
8413;SDS011;4244;48.684;9.028;2023-03-02T02:38:11;28.60;;;24.30;;
8413;SDS011;4244;48.684;9.028;2023-03-02T02:40:45;32.57;;;23.73;;
8413;SDS011;4244;48.684;9.028;2023-03-02T02:43:14;28.93;;;23.00;;
8413;SDS011;4244;48.684;9.028;2023-03-02T02:45:42;32.23;;;24.30;;
8413;SDS011;4244;48.684;9.028;2023-03-02T02:48:14;32.63;;;24.10;;
8413;SDS011;4244;48.684;9.028;2023-03-02T02:50:40;29.30;;;22.10;;
8413;SDS011;4244;48.684;9.028;2023-03-02T02:55:37;32.43;;;23.70;;
8413;SDS011;4244;48.684;9.028;2023-03-02T02:58:05;31.57;;;23.73;;
8413;SDS011;4244;48.684;9.028;2023-03-02T03:00:48;31.60;;;23.67;;
8413;SDS011;4244;48.684;9.028;2023-03-02T03:03:14;33.73;;;22.27;;
8413;SDS011;4244;48.684;9.028;2023-03-02T03:05:56;32.60;;;23.60;;
8413;SDS011;4244;48.684;9.028;2023-03-02T03:11:10;30.13;;;22.30;;
8413;SDS011;4244;48.684;9.028;2023-03-02T03:13:37;29.93;;;23.77;;
8413;SDS011;4244;48.684;9.028;2023-03-02T03:16:04;29.97;;;22.80;;
8413;SDS011;4244;48.684;9.028;2023-03-02T03:18:30;27.70;;;22.10;;
8413;SDS011;4244;48.684;9.028;2023-03-02T03:20:56;27.73;;;22.13;;
8413;SDS011;4244;48.684;9.028;2023-03-02T03:23:22;31.00;;;24.27;;
8413;SDS011;4244;48.684;9.028;2023-03-02T03:25:48;31.33;;;24.17;;
8413;SDS011;4244;48.684;9.028;2023-03-02T03:28:14;32.20;;;24.37;;
8413;SDS011;4244;48.684;9.028;2023-03-02T03:30:39;34.07;;;25.20;;
8413;SDS011;4244;48.684;9.028;2023-03-02T03:33:05;32.57;;;23.47;;
8413;SDS011;4244;48.684;9.028;2023-03-02T03:35:35;35.10;;;26.43;;
8413;SDS011;4244;48.684;9.028;2023-03-02T03:38:02;30.43;;;23.57;;
8413;SDS011;4244;48.684;9.028;2023-03-02T03:40:29;31.40;;;23.73;;
8413;SDS011;4244;48.684;9.028;2023-03-02T03:42:58;33.50;;;25.37;;
8413;SDS011;4244;48.684;9.028;2023-03-02T03:45:27;34.20;;;25.00;;
8413;SDS011;4244;48.684;9.028;2023-03-02T03:47:53;32.40;;;25.00;;
8413;SDS011;4244;48.684;9.028;2023-03-02T03:50:19;30.90;;;23.80;;
8413;SDS011;4244;48.684;9.028;2023-03-02T03:52:46;33.90;;;25.97;;
8413;SDS011;4244;48.684;9.028;2023-03-02T03:55:11;29.80;;;25.23;;
8413;SDS011;4244;48.684;9.028;2023-03-02T03:57:37;29.10;;;22.80;;
8413;SDS011;4244;48.684;9.028;2023-03-02T04:00:04;32.10;;;24.80;;
8413;SDS011;4244;48.684;9.028;2023-03-02T04:02:32;31.30;;;23.87;;
8413;SDS011;4244;48.684;9.028;2023-03-02T04:04:58;33.67;;;24.80;;
8413;SDS011;4244;48.684;9.028;2023-03-02T04:07:30;32.47;;;25.20;;
8413;SDS011;4244;48.684;9.028;2023-03-02T04:09:56;31.73;;;25.00;;
8413;SDS011;4244;48.684;9.028;2023-03-02T04:12:31;32.07;;;23.73;;
8413;SDS011;4244;48.684;9.028;2023-03-02T04:14:58;33.73;;;25.50;;
8413;SDS011;4244;48.684;9.028;2023-03-02T04:17:23;30.37;;;24.70;;
8413;SDS011;4244;48.684;9.028;2023-03-02T04:19:50;29.57;;;24.10;;
8413;SDS011;4244;48.684;9.028;2023-03-02T04:22:15;32.20;;;25.10;;
8413;SDS011;4244;48.684;9.028;2023-03-02T04:24:41;31.73;;;24.00;;
8413;SDS011;4244;48.684;9.028;2023-03-02T04:27:07;30.77;;;23.23;;
8413;SDS011;4244;48.684;9.028;2023-03-02T04:29:33;27.93;;;22.60;;
8413;SDS011;4244;48.684;9.028;2023-03-02T04:31:59;33.27;;;24.40;;
8413;SDS011;4244;48.684;9.028;2023-03-02T04:34:25;29.47;;;24.00;;
8413;SDS011;4244;48.684;9.028;2023-03-02T04:36:51;34.93;;;25.83;;
8413;SDS011;4244;48.684;9.028;2023-03-02T04:39:17;30.07;;;24.10;;
8413;SDS011;4244;48.684;9.028;2023-03-02T04:41:43;30.10;;;22.70;;
8413;SDS011;4244;48.684;9.028;2023-03-02T04:44:09;32.03;;;24.50;;
8413;SDS011;4244;48.684;9.028;2023-03-02T04:46:35;29.50;;;23.53;;
8413;SDS011;4244;48.684;9.028;2023-03-02T04:49:01;31.47;;;26.30;;
8413;SDS011;4244;48.684;9.028;2023-03-02T04:51:30;31.70;;;25.70;;
8413;SDS011;4244;48.684;9.028;2023-03-02T04:54:02;31.23;;;26.57;;
8413;SDS011;4244;48.684;9.028;2023-03-02T04:56:34;36.30;;;29.53;;
8413;SDS011;4244;48.684;9.028;2023-03-02T04:59:00;30.87;;;26.10;;
8413;SDS011;4244;48.684;9.028;2023-03-02T05:01:25;33.17;;;27.10;;
8413;SDS011;4244;48.684;9.028;2023-03-02T05:03:51;35.20;;;28.20;;
8413;SDS011;4244;48.684;9.028;2023-03-02T05:06:17;36.87;;;26.60;;
8413;SDS011;4244;48.684;9.028;2023-03-02T05:08:45;31.67;;;23.63;;
8413;SDS011;4244;48.684;9.028;2023-03-02T05:11:12;33.00;;;25.97;;
8413;SDS011;4244;48.684;9.028;2023-03-02T05:13:52;31.03;;;25.10;;
8413;SDS011;4244;48.684;9.028;2023-03-02T05:16:23;32.93;;;24.13;;
8413;SDS011;4244;48.684;9.028;2023-03-02T05:18:50;36.03;;;27.07;;
8413;SDS011;4244;48.684;9.028;2023-03-02T05:21:16;39.03;;;26.57;;
8413;SDS011;4244;48.684;9.028;2023-03-02T05:23:42;32.00;;;25.13;;
8413;SDS011;4244;48.684;9.028;2023-03-02T05:26:08;33.13;;;25.70;;
8413;SDS011;4244;48.684;9.028;2023-03-02T05:28:34;32.47;;;25.00;;
8413;SDS011;4244;48.684;9.028;2023-03-02T05:31:00;30.53;;;25.20;;
8413;SDS011;4244;48.684;9.028;2023-03-02T05:33:26;33.03;;;25.00;;
8413;SDS011;4244;48.684;9.028;2023-03-02T05:35:53;33.53;;;25.77;;
8413;SDS011;4244;48.684;9.028;2023-03-02T05:38:18;33.97;;;25.20;;
8413;SDS011;4244;48.684;9.028;2023-03-02T05:40:44;32.80;;;25.30;;
8413;SDS011;4244;48.684;9.028;2023-03-02T05:43:12;33.80;;;25.37;;
8413;SDS011;4244;48.684;9.028;2023-03-02T05:45:40;34.03;;;25.50;;
8413;SDS011;4244;48.684;9.028;2023-03-02T05:48:06;36.17;;;25.90;;
8413;SDS011;4244;48.684;9.028;2023-03-02T05:50:32;33.23;;;24.67;;
8413;SDS011;4244;48.684;9.028;2023-03-02T05:52:58;31.03;;;24.67;;
8413;SDS011;4244;48.684;9.028;2023-03-02T05:55:26;36.33;;;26.10;;
8413;SDS011;4244;48.684;9.028;2023-03-02T05:57:52;36.83;;;26.63;;
8413;SDS011;4244;48.684;9.028;2023-03-02T06:00:18;34.50;;;24.67;;
8413;SDS011;4244;48.684;9.028;2023-03-02T06:02:44;35.00;;;25.43;;
8413;SDS011;4244;48.684;9.028;2023-03-02T06:05:19;35.00;;;26.27;;
8413;SDS011;4244;48.684;9.028;2023-03-02T06:07:46;33.03;;;25.40;;
8413;SDS011;4244;48.684;9.028;2023-03-02T06:10:12;32.97;;;24.80;;
8413;SDS011;4244;48.684;9.028;2023-03-02T06:12:38;37.90;;;26.10;;
8413;SDS011;4244;48.684;9.028;2023-03-02T06:15:04;32.80;;;25.33;;
8413;SDS011;4244;48.684;9.028;2023-03-02T06:17:30;30.20;;;23.37;;
8413;SDS011;4244;48.684;9.028;2023-03-02T06:19:56;30.50;;;24.37;;
8413;SDS011;4244;48.684;9.028;2023-03-02T06:22:22;35.23;;;25.00;;
8413;SDS011;4244;48.684;9.028;2023-03-02T06:24:48;35.47;;;27.00;;
8413;SDS011;4244;48.684;9.028;2023-03-02T06:27:14;33.33;;;25.33;;
8413;SDS011;4244;48.684;9.028;2023-03-02T06:29:40;32.03;;;26.00;;
8413;SDS011;4244;48.684;9.028;2023-03-02T06:32:06;28.00;;;22.10;;
8413;SDS011;4244;48.684;9.028;2023-03-02T06:34:32;33.03;;;26.50;;
8413;SDS011;4244;48.684;9.028;2023-03-02T06:36:58;32.57;;;25.57;;
8413;SDS011;4244;48.684;9.028;2023-03-02T06:39:23;31.43;;;25.47;;
8413;SDS011;4244;48.684;9.028;2023-03-02T06:41:49;31.37;;;23.93;;
8413;SDS011;4244;48.684;9.028;2023-03-02T06:44:15;39.73;;;25.57;;
8413;SDS011;4244;48.684;9.028;2023-03-02T06:46:42;32.43;;;24.27;;
8413;SDS011;4244;48.684;9.028;2023-03-02T06:49:08;32.93;;;25.90;;
8413;SDS011;4244;48.684;9.028;2023-03-02T06:51:34;33.80;;;25.83;;
8413;SDS011;4244;48.684;9.028;2023-03-02T06:54:00;34.00;;;24.80;;
8413;SDS011;4244;48.684;9.028;2023-03-02T06:56:26;30.90;;;23.20;;
8413;SDS011;4244;48.684;9.028;2023-03-02T06:58:52;31.40;;;24.47;;
8413;SDS011;4244;48.684;9.028;2023-03-02T07:01:17;30.23;;;24.37;;
8413;SDS011;4244;48.684;9.028;2023-03-02T07:03:43;33.13;;;25.50;;
8413;SDS011;4244;48.684;9.028;2023-03-02T07:06:10;30.77;;;25.87;;
8413;SDS011;4244;48.684;9.028;2023-03-02T07:08:36;32.20;;;24.10;;
8413;SDS011;4244;48.684;9.028;2023-03-02T07:11:09;32.20;;;24.13;;
8413;SDS011;4244;48.684;9.028;2023-03-02T07:13:36;36.20;;;24.57;;
8413;SDS011;4244;48.684;9.028;2023-03-02T07:16:09;30.90;;;24.73;;
8413;SDS011;4244;48.684;9.028;2023-03-02T07:18:36;30.97;;;24.40;;
8413;SDS011;4244;48.684;9.028;2023-03-02T07:21:02;31.77;;;24.30;;
8413;SDS011;4244;48.684;9.028;2023-03-02T07:23:28;31.23;;;22.53;;
8413;SDS011;4244;48.684;9.028;2023-03-02T07:25:54;32.73;;;24.37;;
8413;SDS011;4244;48.684;9.028;2023-03-02T07:28:19;34.83;;;24.90;;
8413;SDS011;4244;48.684;9.028;2023-03-02T07:30:48;30.80;;;23.87;;
8413;SDS011;4244;48.684;9.028;2023-03-02T07:33:17;28.33;;;23.13;;
8413;SDS011;4244;48.684;9.028;2023-03-02T07:35:46;32.60;;;24.13;;
8413;SDS011;4244;48.684;9.028;2023-03-02T07:38:12;32.43;;;24.10;;
8413;SDS011;4244;48.684;9.028;2023-03-02T07:40:41;28.93;;;24.17;;
8413;SDS011;4244;48.684;9.028;2023-03-02T07:43:07;30.30;;;24.97;;
8413;SDS011;4244;48.684;9.028;2023-03-02T07:45:32;34.43;;;25.70;;
8413;SDS011;4244;48.684;9.028;2023-03-02T07:47:58;29.87;;;23.43;;
8413;SDS011;4244;48.684;9.028;2023-03-02T07:50:24;30.80;;;24.10;;
8413;SDS011;4244;48.684;9.028;2023-03-02T07:52:49;31.57;;;23.90;;
8413;SDS011;4244;48.684;9.028;2023-03-02T07:55:15;32.63;;;24.30;;
8413;SDS011;4244;48.684;9.028;2023-03-02T07:57:41;29.50;;;24.27;;
8413;SDS011;4244;48.684;9.028;2023-03-02T08:00:07;29.50;;;24.30;;
8413;SDS011;4244;48.684;9.028;2023-03-02T08:02:33;32.43;;;24.70;;
8413;SDS011;4244;48.684;9.028;2023-03-02T08:04:59;32.03;;;24.50;;
8413;SDS011;4244;48.684;9.028;2023-03-02T08:07:24;34.63;;;24.97;;
8413;SDS011;4244;48.684;9.028;2023-03-02T08:09:50;32.00;;;24.17;;
8413;SDS011;4244;48.684;9.028;2023-03-02T08:12:16;32.53;;;24.57;;
8413;SDS011;4244;48.684;9.028;2023-03-02T08:14:41;29.73;;;22.73;;
8413;SDS011;4244;48.684;9.028;2023-03-02T08:17:07;28.50;;;22.40;;
8413;SDS011;4244;48.684;9.028;2023-03-02T08:19:32;30.83;;;24.43;;
8413;SDS011;4244;48.684;9.028;2023-03-02T08:21:58;27.50;;;22.40;;
8413;SDS011;4244;48.684;9.028;2023-03-02T08:24:25;29.20;;;22.10;;
8413;SDS011;4244;48.684;9.028;2023-03-02T08:26:51;33.30;;;24.77;;
8413;SDS011;4244;48.684;9.028;2023-03-02T08:29:16;28.10;;;23.77;;
8413;SDS011;4244;48.684;9.028;2023-03-02T08:31:42;29.33;;;23.90;;
8413;SDS011;4244;48.684;9.028;2023-03-02T08:34:08;27.83;;;22.23;;
8413;SDS011;4244;48.684;9.028;2023-03-02T08:36:33;29.40;;;22.50;;
8413;SDS011;4244;48.684;9.028;2023-03-02T08:38:59;31.40;;;23.47;;
8413;SDS011;4244;48.684;9.028;2023-03-02T08:41:25;27.87;;;22.37;;
8413;SDS011;4244;48.684;9.028;2023-03-02T08:43:50;29.63;;;24.00;;
8413;SDS011;4244;48.684;9.028;2023-03-02T08:46:19;26.27;;;22.30;;
8413;SDS011;4244;48.684;9.028;2023-03-02T08:48:45;28.90;;;22.10;;
8413;SDS011;4244;48.684;9.028;2023-03-02T08:51:12;27.37;;;22.87;;
8413;SDS011;4244;48.684;9.028;2023-03-02T08:53:40;27.37;;;22.40;;
8413;SDS011;4244;48.684;9.028;2023-03-02T08:56:14;27.17;;;22.97;;
8413;SDS011;4244;48.684;9.028;2023-03-02T08:58:44;25.83;;;21.00;;
8413;SDS011;4244;48.684;9.028;2023-03-02T09:01:14;29.03;;;21.60;;
8413;SDS011;4244;48.684;9.028;2023-03-02T09:03:45;29.50;;;23.23;;
8413;SDS011;4244;48.684;9.028;2023-03-02T09:06:10;25.43;;;21.13;;
8413;SDS011;4244;48.684;9.028;2023-03-02T09:08:36;27.27;;;21.70;;
8413;SDS011;4244;48.684;9.028;2023-03-02T09:11:02;25.50;;;19.47;;
8413;SDS011;4244;48.684;9.028;2023-03-02T09:13:28;24.97;;;19.97;;
8413;SDS011;4244;48.684;9.028;2023-03-02T09:15:54;29.53;;;21.87;;
8413;SDS011;4244;48.684;9.028;2023-03-02T09:18:20;28.13;;;22.17;;
8413;SDS011;4244;48.684;9.028;2023-03-02T09:20:52;26.67;;;20.97;;
8413;SDS011;4244;48.684;9.028;2023-03-02T09:23:18;25.60;;;21.93;;
8413;SDS011;4244;48.684;9.028;2023-03-02T09:25:45;25.13;;;21.27;;
8413;SDS011;4244;48.684;9.028;2023-03-02T09:28:12;28.43;;;22.37;;
8413;SDS011;4244;48.684;9.028;2023-03-02T09:30:39;22.70;;;19.37;;
8413;SDS011;4244;48.684;9.028;2023-03-02T09:33:05;25.60;;;22.67;;
8413;SDS011;4244;48.684;9.028;2023-03-02T09:35:31;25.00;;;20.30;;
8413;SDS011;4244;48.684;9.028;2023-03-02T09:37:56;25.30;;;19.77;;
8413;SDS011;4244;48.684;9.028;2023-03-02T09:40:23;24.37;;;19.27;;
8413;SDS011;4244;48.684;9.028;2023-03-02T09:48:04;23.20;;;20.70;;
8413;SDS011;4244;48.684;9.028;2023-03-02T09:53:34;20.60;;;18.23;;
8413;SDS011;4244;48.684;9.028;2023-03-02T09:56:07;24.13;;;19.73;;
8413;SDS011;4244;48.684;9.028;2023-03-02T09:58:41;24.70;;;18.57;;
8413;SDS011;4244;48.684;9.028;2023-03-02T10:01:20;22.10;;;18.70;;
8413;SDS011;4244;48.684;9.028;2023-03-02T10:03:53;19.63;;;17.37;;
8413;SDS011;4244;48.684;9.028;2023-03-02T10:06:27;21.47;;;18.37;;
8413;SDS011;4244;48.684;9.028;2023-03-02T10:08:54;21.77;;;17.43;;
8413;SDS011;4244;48.684;9.028;2023-03-02T10:19:15;23.67;;;19.37;;
8413;SDS011;4244;48.684;9.028;2023-03-02T10:22:12;22.50;;;19.17;;
8413;SDS011;4244;48.684;9.028;2023-03-02T10:27:37;20.97;;;18.40;;
8413;SDS011;4244;48.684;9.028;2023-03-02T10:32:41;20.67;;;18.57;;
8413;SDS011;4244;48.684;9.028;2023-03-02T10:35:13;22.20;;;19.90;;
8413;SDS011;4244;48.684;9.028;2023-03-02T10:37:45;24.03;;;18.83;;
8413;SDS011;4244;48.684;9.028;2023-03-02T10:40:23;24.27;;;21.47;;
8413;SDS011;4244;48.684;9.028;2023-03-02T10:43:02;21.23;;;19.03;;
8413;SDS011;4244;48.684;9.028;2023-03-02T10:45:30;21.53;;;17.97;;
8413;SDS011;4244;48.684;9.028;2023-03-02T10:48:00;23.50;;;19.97;;
8413;SDS011;4244;48.684;9.028;2023-03-02T10:50:30;21.97;;;19.77;;
8413;SDS011;4244;48.684;9.028;2023-03-02T10:52:57;22.60;;;20.17;;
8413;SDS011;4244;48.684;9.028;2023-03-02T10:55:23;19.47;;;17.07;;
8413;SDS011;4244;48.684;9.028;2023-03-02T10:58:00;20.27;;;17.97;;
8413;SDS011;4244;48.684;9.028;2023-03-02T11:00:28;21.67;;;19.37;;
8413;SDS011;4244;48.684;9.028;2023-03-02T11:02:56;23.90;;;20.40;;
8413;SDS011;4244;48.684;9.028;2023-03-02T11:07:59;24.80;;;21.20;;
8413;SDS011;4244;48.684;9.028;2023-03-02T11:10:27;21.17;;;19.07;;
8413;SDS011;4244;48.684;9.028;2023-03-02T11:15:51;26.43;;;23.10;;
8413;SDS011;4244;48.684;9.028;2023-03-02T11:21:21;22.90;;;19.83;;
8413;SDS011;4244;48.684;9.028;2023-03-02T11:24:06;24.50;;;19.70;;
8413;SDS011;4244;48.684;9.028;2023-03-02T11:26:34;25.07;;;22.40;;
8413;SDS011;4244;48.684;9.028;2023-03-02T11:29:03;27.77;;;22.87;;
8413;SDS011;4244;48.684;9.028;2023-03-02T11:31:55;22.47;;;19.93;;
8413;SDS011;4244;48.684;9.028;2023-03-02T11:34:39;23.93;;;20.53;;
8413;SDS011;4244;48.684;9.028;2023-03-02T11:40:23;25.00;;;22.17;;
8413;SDS011;4244;48.684;9.028;2023-03-02T11:42:57;25.80;;;23.07;;
8413;SDS011;4244;48.684;9.028;2023-03-02T11:45:28;23.90;;;21.40;;
8413;SDS011;4244;48.684;9.028;2023-03-02T11:48:01;24.70;;;22.10;;
8413;SDS011;4244;48.684;9.028;2023-03-02T11:50:28;25.90;;;22.73;;
8413;SDS011;4244;48.684;9.028;2023-03-02T11:52:57;11.37;;;10.17;;
8413;SDS011;4244;48.684;9.028;2023-03-02T11:55:27;12.20;;;9.20;;
8413;SDS011;4244;48.684;9.028;2023-03-02T11:57:58;12.07;;;10.10;;
8413;SDS011;4244;48.684;9.028;2023-03-02T12:00:27;12.20;;;10.17;;
8413;SDS011;4244;48.684;9.028;2023-03-02T12:05:26;16.20;;;11.90;;
8413;SDS011;4244;48.684;9.028;2023-03-02T12:08:00;14.17;;;12.67;;
8413;SDS011;4244;48.684;9.028;2023-03-02T12:10:33;14.47;;;12.67;;
8413;SDS011;4244;48.684;9.028;2023-03-02T12:13:20;15.53;;;13.80;;
8413;SDS011;4244;48.684;9.028;2023-03-02T12:15:55;16.10;;;13.80;;
8413;SDS011;4244;48.684;9.028;2023-03-02T12:21:02;16.40;;;14.90;;
8413;SDS011;4244;48.684;9.028;2023-03-02T12:23:30;16.17;;;14.47;;
8413;SDS011;4244;48.684;9.028;2023-03-02T12:26:58;16.63;;;15.13;;
8413;SDS011;4244;48.684;9.028;2023-03-02T12:31:44;15.43;;;13.83;;
8413;SDS011;4244;48.684;9.028;2023-03-02T12:34:31;15.40;;;13.90;;
8413;SDS011;4244;48.684;9.028;2023-03-02T12:37:00;14.47;;;13.27;;
8413;SDS011;4244;48.684;9.028;2023-03-02T12:39:42;17.43;;;15.57;;
8413;SDS011;4244;48.684;9.028;2023-03-02T12:45:12;16.90;;;15.30;;
8413;SDS011;4244;48.684;9.028;2023-03-02T12:47:45;17.73;;;16.10;;
8413;SDS011;4244;48.684;9.028;2023-03-02T12:50:16;19.27;;;17.50;;
8413;SDS011;4244;48.684;9.028;2023-03-02T12:52:44;20.13;;;18.33;;
8413;SDS011;4244;48.684;9.028;2023-03-02T12:55:28;20.97;;;19.07;;
8413;SDS011;4244;48.684;9.028;2023-03-02T12:57:55;22.97;;;20.77;;
8413;SDS011;4244;48.684;9.028;2023-03-02T13:00:32;20.23;;;18.53;;
8413;SDS011;4244;48.684;9.028;2023-03-02T13:02:59;21.97;;;20.07;;
8413;SDS011;4244;48.684;9.028;2023-03-02T13:05:31;21.07;;;18.97;;
8413;SDS011;4244;48.684;9.028;2023-03-02T13:08:03;21.40;;;19.63;;
8413;SDS011;4244;48.684;9.028;2023-03-02T13:13:15;22.37;;;20.40;;
8413;SDS011;4244;48.684;9.028;2023-03-02T13:18:23;21.77;;;19.70;;
8413;SDS011;4244;48.684;9.028;2023-03-02T13:20:51;21.33;;;19.47;;
8413;SDS011;4244;48.684;9.028;2023-03-02T13:23:18;22.00;;;20.10;;
8413;SDS011;4244;48.684;9.028;2023-03-02T13:25:48;21.70;;;19.90;;
8413;SDS011;4244;48.684;9.028;2023-03-02T13:28:28;22.20;;;20.10;;
8413;SDS011;4244;48.684;9.028;2023-03-02T13:31:16;25.80;;;23.50;;
8413;SDS011;4244;48.684;9.028;2023-03-02T13:33:45;24.57;;;22.57;;
8413;SDS011;4244;48.684;9.028;2023-03-02T13:36:45;23.40;;;21.60;;
8413;SDS011;4244;48.684;9.028;2023-03-02T13:39:05;23.43;;;21.53;;
8413;SDS011;4244;48.684;9.028;2023-03-02T13:41:33;22.83;;;20.93;;
8413;SDS011;4244;48.684;9.028;2023-03-02T13:44:10;23.17;;;21.07;;
8413;SDS011;4244;48.684;9.028;2023-03-02T13:46:43;24.00;;;21.90;;
8413;SDS011;4244;48.684;9.028;2023-03-02T13:49:09;22.90;;;20.97;;
8413;SDS011;4244;48.684;9.028;2023-03-02T13:51:36;22.67;;;20.83;;
8413;SDS011;4244;48.684;9.028;2023-03-02T13:54:18;24.07;;;22.07;;
8413;SDS011;4244;48.684;9.028;2023-03-02T13:56:52;23.07;;;21.07;;
8413;SDS011;4244;48.684;9.028;2023-03-02T13:59:19;24.33;;;22.33;;
8413;SDS011;4244;48.684;9.028;2023-03-02T14:01:45;24.53;;;22.20;;
8413;SDS011;4244;48.684;9.028;2023-03-02T14:04:14;22.73;;;20.73;;
8413;SDS011;4244;48.684;9.028;2023-03-02T14:06:47;21.93;;;19.87;;
8413;SDS011;4244;48.684;9.028;2023-03-02T14:09:13;24.10;;;21.73;;
8413;SDS011;4244;48.684;9.028;2023-03-02T14:11:41;23.33;;;21.50;;
8413;SDS011;4244;48.684;9.028;2023-03-02T14:14:16;22.37;;;20.37;;
8413;SDS011;4244;48.684;9.028;2023-03-02T14:16:44;21.13;;;19.43;;
8413;SDS011;4244;48.684;9.028;2023-03-02T14:19:11;20.80;;;19.20;;
8413;SDS011;4244;48.684;9.028;2023-03-02T14:21:38;21.57;;;19.87;;
8413;SDS011;4244;48.684;9.028;2023-03-02T14:24:04;21.43;;;19.60;;
8413;SDS011;4244;48.684;9.028;2023-03-02T14:26:43;21.30;;;19.60;;
8413;SDS011;4244;48.684;9.028;2023-03-02T14:29:31;20.97;;;19.20;;
8413;SDS011;4244;48.684;9.028;2023-03-02T14:31:59;22.33;;;20.30;;
8413;SDS011;4244;48.684;9.028;2023-03-02T14:34:30;24.03;;;22.23;;
8413;SDS011;4244;48.684;9.028;2023-03-02T14:36:58;20.87;;;19.07;;
8413;SDS011;4244;48.684;9.028;2023-03-02T14:42:02;20.30;;;18.33;;
8413;SDS011;4244;48.684;9.028;2023-03-02T14:44:28;21.50;;;19.80;;
8413;SDS011;4244;48.684;9.028;2023-03-02T14:46:54;21.33;;;19.37;;
8413;SDS011;4244;48.684;9.028;2023-03-02T14:49:21;21.00;;;19.40;;
8413;SDS011;4244;48.684;9.028;2023-03-02T14:52:34;17.80;;;16.40;;
8413;SDS011;4244;48.684;9.028;2023-03-02T14:54:41;22.00;;;20.30;;
8413;SDS011;4244;48.684;9.028;2023-03-02T14:57:25;21.60;;;19.90;;
8413;SDS011;4244;48.684;9.028;2023-03-02T14:59:52;21.77;;;19.97;;
8413;SDS011;4244;48.684;9.028;2023-03-02T15:02:19;20.60;;;18.97;;
8413;SDS011;4244;48.684;9.028;2023-03-02T15:04:46;23.33;;;21.37;;
8413;SDS011;4244;48.684;9.028;2023-03-02T15:07:13;23.10;;;21.17;;
8413;SDS011;4244;48.684;9.028;2023-03-02T15:09:40;21.97;;;20.07;;
8413;SDS011;4244;48.684;9.028;2023-03-02T15:12:07;21.50;;;19.77;;
8413;SDS011;4244;48.684;9.028;2023-03-02T15:14:34;22.03;;;20.20;;
8413;SDS011;4244;48.684;9.028;2023-03-02T15:17:00;22.87;;;21.07;;
8413;SDS011;4244;48.684;9.028;2023-03-02T15:19:25;21.00;;;19.30;;
8413;SDS011;4244;48.684;9.028;2023-03-02T15:21:51;22.43;;;20.63;;
8413;SDS011;4244;48.684;9.028;2023-03-02T15:24:18;19.37;;;17.53;;
8413;SDS011;4244;48.684;9.028;2023-03-02T15:26:50;21.90;;;19.80;;
8413;SDS011;4244;48.684;9.028;2023-03-02T15:29:17;21.13;;;18.90;;
8413;SDS011;4244;48.684;9.028;2023-03-02T15:31:43;22.30;;;20.37;;
8413;SDS011;4244;48.684;9.028;2023-03-02T15:34:09;20.30;;;18.60;;
8413;SDS011;4244;48.684;9.028;2023-03-02T15:36:35;20.33;;;18.47;;
8413;SDS011;4244;48.684;9.028;2023-03-02T15:39:01;20.53;;;18.77;;
8413;SDS011;4244;48.684;9.028;2023-03-02T15:41:28;20.60;;;18.70;;
8413;SDS011;4244;48.684;9.028;2023-03-02T15:43:54;23.17;;;21.17;;
8413;SDS011;4244;48.684;9.028;2023-03-02T15:46:20;21.37;;;19.60;;
8413;SDS011;4244;48.684;9.028;2023-03-02T15:48:46;19.70;;;17.90;;
8413;SDS011;4244;48.684;9.028;2023-03-02T15:51:12;21.00;;;19.20;;
8413;SDS011;4244;48.684;9.028;2023-03-02T15:53:38;21.73;;;19.67;;
8413;SDS011;4244;48.684;9.028;2023-03-02T15:56:08;22.47;;;20.37;;
8413;SDS011;4244;48.684;9.028;2023-03-02T15:58:36;21.90;;;20.00;;
8413;SDS011;4244;48.684;9.028;2023-03-02T16:01:05;21.97;;;20.07;;